createdAt,value
2019-03-06T00:04:23.979Z,97664.00
2019-03-06T00:09:30.820Z,97668.00
2019-03-06T00:14:37.435Z,97675.00
2019-03-06T00:19:44.137Z,97681.00
2019-03-06T00:24:51.910Z,97671.00
2019-03-06T00:29:58.559Z,97678.00
2019-03-06T00:35:08.313Z,97686.00
2019-03-06T00:45:58.810Z,97680.00
2019-03-06T00:51:04.834Z,97681.00
2019-03-06T00:56:11.399Z,97682.00
2019-03-06T01:01:19.207Z,97684.00
2019-03-06T01:06:27.597Z,97674.00
2019-03-06T01:11:34.321Z,97673.00
2019-03-06T01:16:41.103Z,97677.00
2019-03-06T01:21:47.801Z,97671.00
2019-03-06T01:26:54.330Z,97675.00
2019-03-06T01:32:02.415Z,97673.00
2019-03-06T01:37:23.647Z,97668.00
2019-03-06T01:48:08.142Z,97679.00
2019-03-06T01:53:37.354Z,97669.00
2019-03-06T01:58:44.295Z,97678.00
2019-03-06T02:03:51.892Z,97678.00
2019-03-06T02:08:57.945Z,97679.00
2019-03-06T02:14:23.272Z,97667.00
2019-03-06T02:19:30.266Z,97674.00
2019-03-06T02:24:37.113Z,97675.00
2019-03-06T02:29:43.976Z,97679.00
2019-03-06T02:35:09.559Z,97673.00
2019-03-06T02:40:16.285Z,97672.00
2019-03-06T02:45:23.551Z,97673.00
2019-03-06T02:50:30.361Z,97672.00
2019-03-06T02:55:38.409Z,97683.00
2019-03-06T03:00:58.468Z,97675.00
2019-03-06T03:06:06.922Z,97685.00
2019-03-06T03:11:13.894Z,97692.00
2019-03-06T03:16:20.979Z,97681.00
2019-03-06T03:21:28.189Z,97690.00
2019-03-06T03:26:37.643Z,97692.00
2019-03-06T03:31:44.678Z,97674.00
2019-03-06T03:36:51.918Z,97671.00
2019-03-06T03:41:57.914Z,97668.00
2019-03-06T03:47:05.017Z,97674.00
2019-03-06T03:52:13.257Z,97679.00
2019-03-06T03:57:20.734Z,97692.00
2019-03-06T04:02:39.892Z,97678.00
2019-03-06T04:07:46.569Z,97685.00
2019-03-06T04:13:14.835Z,97678.00
2019-03-06T04:18:21.502Z,97666.00
2019-03-06T04:23:28.389Z,97673.00
2019-03-06T04:28:36.337Z,97655.00
2019-03-06T04:33:43.309Z,97645.00
2019-03-06T04:38:49.905Z,97631.00
2019-03-06T04:44:17.827Z,97635.00
2019-03-06T04:49:26.441Z,97638.00
2019-03-06T04:54:32.979Z,97640.00
2019-03-06T04:59:39.577Z,97637.00
2019-03-06T05:04:46.170Z,97650.00
2019-03-06T05:09:54.726Z,97658.00
2019-03-06T05:15:00.724Z,97651.00
2019-03-06T05:20:09.578Z,97661.00
2019-03-06T05:25:36.131Z,97667.00
2019-03-06T05:31:04.944Z,97657.00
2019-03-06T05:36:51.643Z,97651.00
2019-03-06T05:41:58.512Z,97663.00
2019-03-06T05:47:06.148Z,97647.00
2019-03-06T05:52:12.926Z,97634.00
2019-03-06T05:57:19.707Z,97636.00
2019-03-06T06:02:27.965Z,97616.00
2019-03-06T06:07:34.928Z,97609.00
2019-03-06T06:12:41.889Z,97608.00
2019-03-06T06:17:49.855Z,97615.00
2019-03-06T06:23:05.942Z,97621.00
2019-03-06T06:28:12.752Z,97613.00
2019-03-06T06:33:40.572Z,97608.00
2019-03-06T06:38:48.534Z,97591.00
2019-03-06T06:43:56.456Z,97604.00
2019-03-06T06:49:03.622Z,97584.00
2019-03-06T06:54:28.794Z,97576.00
2019-03-06T07:00:18.667Z,97571.00
2019-03-06T07:05:27.504Z,97573.00
2019-03-06T07:11:05.565Z,97569.00
2019-03-06T07:16:14.103Z,97561.00
2019-03-06T07:21:22.584Z,97554.00
2019-03-06T07:26:45.910Z,97551.00
2019-03-06T07:32:08.794Z,97564.00
2019-03-06T07:37:17.174Z,97568.00
2019-03-06T07:42:25.763Z,97562.00
2019-03-06T07:47:36.627Z,97559.00
2019-03-06T07:53:00.085Z,97556.00
2019-03-06T07:58:47.783Z,97548.00
2019-03-06T08:04:01.570Z,97532.00
2019-03-06T08:09:21.799Z,97528.00
2019-03-06T08:20:10.957Z,97512.00
2019-03-06T08:25:26.542Z,97519.00
2019-03-06T08:30:35.267Z,97502.00
2019-03-06T08:35:42.133Z,97495.00
2019-03-06T08:40:48.517Z,97493.00
2019-03-06T08:45:59.904Z,97494.00
2019-03-06T08:51:08.340Z,97491.00
2019-03-06T08:56:31.985Z,97497.00
2019-03-06T09:02:00.047Z,97491.00
2019-03-06T09:07:01.516Z,97494.00
2019-03-06T09:12:09.723Z,97469.00
2019-03-06T09:17:28.468Z,97466.00
2019-03-06T09:28:01.890Z,97462.00
2019-03-06T09:33:13.381Z,97457.00
2019-03-06T09:38:38.139Z,97453.00
2019-03-06T09:43:51.601Z,97453.00
2019-03-06T09:49:11.518Z,97450.00
2019-03-06T09:54:19.518Z,97453.00
2019-03-06T09:59:27.771Z,97434.00
2019-03-06T10:04:53.043Z,97430.00
2019-03-06T10:10:07.348Z,97429.00
2019-03-06T10:15:16.195Z,97428.00
2019-03-06T10:20:26.573Z,97412.00
2019-03-06T10:25:33.671Z,97411.00
2019-03-06T10:30:40.819Z,97407.00
2019-03-06T10:35:46.873Z,97391.00
2019-03-06T10:40:53.839Z,97398.00
2019-03-06T10:46:00.914Z,97398.00
2019-03-06T10:51:07.952Z,97394.00
2019-03-06T10:56:14.695Z,97395.00
2019-03-06T11:01:22.887Z,97389.00
2019-03-06T11:06:30.606Z,97390.00
2019-03-06T11:11:37.535Z,97381.00
2019-03-06T11:16:44.233Z,97391.00
2019-03-06T11:21:53.156Z,97393.00
2019-03-06T11:26:59.758Z,97382.00
2019-03-06T11:32:08.825Z,97356.00
2019-03-06T11:37:16.181Z,97373.00
2019-03-06T11:42:22.658Z,97357.00
2019-03-06T11:47:29.132Z,97356.00
2019-03-06T11:52:35.826Z,97347.00
2019-03-06T11:57:45.083Z,97337.00
2019-03-06T12:02:55.390Z,97331.00
2019-03-06T12:08:02.970Z,97318.00
2019-03-06T12:13:13.820Z,97322.00
2019-03-06T12:18:23.746Z,97301.00
2019-03-06T12:23:30.749Z,97293.00
2019-03-06T12:28:37.270Z,97284.00
2019-03-06T12:33:44.051Z,97268.00
2019-03-06T12:38:52.706Z,97246.00
2019-03-06T12:43:58.904Z,97247.00
2019-03-06T12:49:04.984Z,97255.00
2019-03-06T12:54:11.953Z,97246.00
2019-03-06T12:59:19.368Z,97233.00
2019-03-06T13:04:26.145Z,97218.00
2019-03-06T13:09:32.888Z,97199.00
2019-03-06T13:14:39.839Z,97182.00
2019-03-06T13:20:10.297Z,97165.00
2019-03-06T13:25:24.452Z,97164.00
2019-03-06T13:30:34.312Z,97148.00
2019-03-06T13:35:41.725Z,97137.00
2019-03-06T13:40:47.743Z,97136.00
2019-03-06T13:45:53.810Z,97133.00
2019-03-06T13:51:00.835Z,97128.00
2019-03-06T13:56:08.574Z,97145.00
2019-03-06T14:01:15.889Z,97135.00
2019-03-06T14:06:23.726Z,97131.00
2019-03-06T14:11:30.466Z,97132.00
2019-03-06T14:16:39.277Z,97116.00
2019-03-06T14:21:46.107Z,97124.00
2019-03-06T14:26:53.794Z,97101.00
2019-03-06T14:32:02.423Z,97098.00
2019-03-06T14:37:09.926Z,97084.00
2019-03-06T14:42:16.929Z,97060.00
2019-03-06T14:47:23.648Z,97042.00
2019-03-06T14:52:31.042Z,97041.00
2019-03-06T14:57:39.330Z,97021.00
2019-03-06T15:02:45.389Z,97021.00
2019-03-06T15:07:51.359Z,97011.00
2019-03-06T15:12:57.327Z,97005.00
2019-03-06T15:18:10.576Z,97002.00
2019-03-06T15:23:13.335Z,96985.00
2019-03-06T15:28:20.029Z,96975.00
2019-03-06T15:33:27.195Z,96951.00
2019-03-06T15:38:34.775Z,96961.00
2019-03-06T15:43:41.993Z,96961.00
2019-03-06T15:48:48.638Z,96951.00
2019-03-06T15:53:56.207Z,96939.00
2019-03-06T15:59:02.824Z,96931.00
2019-03-06T16:04:09.070Z,96926.00
2019-03-06T16:09:16.094Z,96924.00
2019-03-06T16:14:24.519Z,96911.00
2019-03-06T16:19:43.436Z,96924.00
2019-03-06T16:24:50.062Z,96916.00
2019-03-06T16:29:56.179Z,96917.00
2019-03-06T16:35:02.375Z,96903.00
2019-03-06T16:40:23.191Z,96902.00
2019-03-06T16:45:31.425Z,96906.00
2019-03-06T16:50:56.741Z,96901.00
2019-03-06T16:56:05.298Z,96898.00
2019-03-06T17:01:12.320Z,96901.00
2019-03-06T17:06:19.531Z,96887.00
2019-03-06T17:11:26.467Z,96878.00
2019-03-06T17:16:34.404Z,96861.00
2019-03-06T17:21:42.187Z,96855.00
2019-03-06T17:26:48.789Z,96860.00
2019-03-06T17:31:55.714Z,96860.00
2019-03-06T17:37:01.815Z,96847.00
2019-03-06T17:42:08.608Z,96843.00
2019-03-06T17:47:15.870Z,96839.00
2019-03-06T17:52:23.608Z,96836.00
2019-03-06T17:57:32.114Z,96839.00
2019-03-06T18:02:40.586Z,96843.00
2019-03-06T18:07:47.180Z,96835.00
2019-03-06T18:12:53.598Z,96827.00
2019-03-06T18:18:01.596Z,96823.00
2019-03-06T18:23:08.183Z,96813.00
2019-03-06T18:28:14.748Z,96796.00
2019-03-06T18:33:21.266Z,96798.00
2019-03-06T18:38:28.084Z,96796.00
2019-03-06T18:43:35.324Z,96788.00
2019-03-06T18:48:42.162Z,96782.00
2019-03-06T18:53:48.227Z,96762.00
2019-03-06T18:58:55.124Z,96761.00
2019-03-06T19:04:02.755Z,96748.00
2019-03-06T19:09:11.327Z,96760.00
2019-03-06T19:14:18.205Z,96758.00
2019-03-06T19:19:25.651Z,96762.00
2019-03-06T19:24:32.683Z,96749.00
2019-03-06T19:29:40.918Z,96748.00
2019-03-06T19:35:06.598Z,96742.00
2019-03-06T19:40:35.078Z,96729.00
2019-03-06T19:45:41.646Z,96732.00
2019-03-06T19:50:49.337Z,96704.00
2019-03-06T19:55:56.236Z,96706.00
2019-03-06T20:01:21.464Z,96702.00
2019-03-06T20:06:29.915Z,96701.00
2019-03-06T20:11:36.850Z,96686.00
2019-03-06T20:16:43.787Z,96693.00
2019-03-06T20:21:49.864Z,96687.00
2019-03-06T20:26:58.219Z,96680.00
2019-03-06T20:32:04.894Z,96680.00
2019-03-06T20:37:11.569Z,96678.00
2019-03-06T20:42:18.518Z,96682.00
2019-03-06T20:47:37.333Z,96683.00
2019-03-06T20:52:45.110Z,96689.00
2019-03-06T20:57:53.052Z,96678.00
2019-03-06T21:03:00.584Z,96692.00
2019-03-06T21:08:07.555Z,96679.00
2019-03-06T21:13:16.510Z,96669.00
2019-03-06T21:18:23.067Z,96674.00
2019-03-06T21:23:30.829Z,96661.00
2019-03-06T21:28:37.878Z,96669.00
2019-03-06T21:33:44.503Z,96655.00
2019-03-06T21:38:51.463Z,96655.00
2019-03-06T21:43:57.816Z,96649.00
2019-03-06T21:49:03.908Z,96644.00
2019-03-06T21:54:11.232Z,96645.00
2019-03-06T21:59:18.413Z,96639.00
2019-03-06T22:04:25.892Z,96630.00
2019-03-06T22:09:32.783Z,96623.00
2019-03-06T22:14:39.281Z,96626.00
2019-03-06T22:19:45.678Z,96611.00
2019-03-06T22:24:52.599Z,96604.00
2019-03-06T22:29:59.429Z,96599.00
2019-03-06T22:35:06.933Z,96598.00
2019-03-06T22:40:17.652Z,96584.00
2019-03-06T22:45:24.234Z,96584.00
2019-03-06T22:50:30.894Z,96566.00
2019-03-06T22:55:37.373Z,96553.00
2019-03-06T23:00:55.319Z,96559.00
2019-03-06T23:06:03.891Z,96560.00
2019-03-06T23:11:10.772Z,96551.00
2019-03-06T23:16:38.742Z,96542.00
2019-03-06T23:21:46.126Z,96543.00
2019-03-06T23:26:52.895Z,96532.00
2019-03-06T23:31:59.971Z,96534.00
2019-03-06T23:37:06.641Z,96531.00
2019-03-06T23:42:25.909Z,96522.00
2019-03-06T23:47:32.696Z,96520.00
2019-03-06T23:52:56.380Z,96509.00
2019-03-06T23:58:02.848Z,96518.00
